PWSweather.com
Personal Weather Stations
Station Observations
KFLSEBAS1
Sebastian Highlands, Sebastian, FL 32958-4362

Sebastian HighlandsSebastian, FL 32958-4362

Lat: 27.8, Lon: -80.48

Elevation: 23

Station Type: Davis Weather Monitor II

www.kflsebas1.com

High Low Average
Temperature 84.9°F29.4°C 75.0°F23.9°C 80.9°F27.2°C
Dew Point 80.4°F26.9°C 73.5°F23.1°C 76.3°F24.6°C
Winds 11.0 mph 17.7 kmh Calm Calm 1.0 mph ENE1.6 kmh ENE
Wind Gusts 16.0 mph25.7 kmh -- 8.0 mph12.9 kmh
Humidity 97% 79% 86%
Pressure 30.07 in1018.3 mb 30.00 in1015.9 mb -
Precipitation 0.00 in0.0 mm - -
Hour Temp Dew Point Humidity Winds Wind Gusts Pressure Precip Precip Rate Daily Precip Total
12:00 AM 81.5°F27.5°C 74.4°F23.6°C 79% Calm Calm -- 30.07 in1018.3 mb 0.00 in0.0 mm 0.00 in0.0 mm 0.00 in0.0 mm
12:05 AM 81.5°F27.5°C 74.4°F23.6°C 79% Calm Calm -- 30.07 in1018.3 mb 0.00 in0.0 mm 0.00 in0.0 mm 0.00 in0.0 mm
12:10 AM 81.5°F27.5°C 74.7°F23.7°C 80% Calm Calm 7.0 mph11.3 kmh 30.07 in1018.3 mb 0.00 in0.0 mm 0.00 in0.0 mm 0.00 in0.0 mm
12:15 AM 81.5°F27.5°C 74.4°F23.6°C 79% Calm Calm 9.0 mph14.5 kmh 30.07 in1018.3 mb 0.00 in0.0 mm 0.00 in0.0 mm 0.00 in0.0 mm
12:20 AM 81.4°F27.4°C 74.3°F23.5°C 79% Calm Calm 9.0 mph14.5 kmh 30.07 in1018.3 mb 0.00 in0.0 mm 0.00 in0.0 mm 0.00 in0.0 mm
12:25 AM 81.3°F27.4°C 74.5°F23.6°C 80% Calm Calm 9.0 mph14.5 kmh 30.06 in1017.9 mb 0.00 in0.0 mm 0.00 in0.0 mm 0.00 in0.0 mm
12:30 AM 81.3°F27.4°C 74.5°F23.6°C 80% Calm Calm 9.0 mph14.5 kmh 30.07 in1018.3 mb 0.00 in0.0 mm 0.00 in0.0 mm 0.00 in0.0 mm
12:35 AM 81.4°F27.4°C 75.0°F23.9°C 81% Calm Calm 9.0 mph14.5 kmh 30.07 in1018.3 mb 0.00 in0.0 mm 0.00 in0.0 mm 0.00 in0.0 mm
12:40 AM 81.4°F27.4°C 75.0°F23.9°C 81% Calm Calm 9.0 mph14.5 kmh 30.07 in1018.3 mb 0.00 in0.0 mm 0.00 in0.0 mm 0.00 in0.0 mm
12:45 AM 81.4°F27.4°C 75.7°F24.3°C 83% Calm Calm 9.0 mph14.5 kmh 30.06 in1017.9 mb 0.00 in0.0 mm 0.00 in0.0 mm 0.00 in0.0 mm
12:50 AM 81.4°F27.4°C 75.0°F23.9°C 81% 2.0 mph SE3.2 kmh SE 9.0 mph14.5 kmh 30.06 in1017.9 mb 0.00 in0.0 mm 0.00 in0.0 mm 0.00 in0.0 mm
12:55 AM 81.4°F27.4°C 75.0°F23.9°C 81% Calm Calm 9.0 mph14.5 kmh 30.06 in1017.9 mb 0.00 in0.0 mm 0.00 in0.0 mm 0.00 in0.0 mm
01:00 AM 81.4°F27.4°C 75.0°F23.9°C 81% Calm Calm -- 30.06 in1017.9 mb 0.00 in0.0 mm 0.00 in0.0 mm 0.00 in0.0 mm
01:05 AM 81.3°F27.4°C 74.9°F23.8°C 81% Calm Calm -- 30.05 in1017.6 mb 0.00 in0.0 mm 0.00 in0.0 mm 0.00 in0.0 mm
01:10 AM 81.3°F27.4°C 75.3°F24.1°C 82% Calm Calm -- 30.06 in1017.9 mb 0.00 in0.0 mm 0.00 in0.0 mm 0.00 in0.0 mm
01:15 AM 81.2°F27.3°C 75.2°F24.0°C 82% Calm Calm -- 30.05 in1017.6 mb 0.00 in0.0 mm 0.00 in0.0 mm 0.00 in0.0 mm
01:20 AM 81.1°F27.3°C 75.1°F23.9°C 82% Calm Calm -- 30.05 in1017.6 mb 0.00 in0.0 mm 0.00 in0.0 mm 0.00 in0.0 mm
01:25 AM 81.0°F27.2°C 75.0°F23.9°C 82% Calm Calm -- 30.04 in1017.3 mb 0.00 in0.0 mm 0.00 in0.0 mm 0.00 in0.0 mm
01:30 AM 80.9°F27.2°C 74.9°F23.8°C 82% Calm Calm -- 30.04 in1017.3 mb 0.00 in0.0 mm 0.00 in0.0 mm 0.00 in0.0 mm
01:35 AM 80.8°F27.1°C 74.8°F23.8°C 82% Calm Calm -- 30.04 in1017.3 mb 0.00 in0.0 mm 0.00 in0.0 mm 0.00 in0.0 mm
01:40 AM 80.7°F27.1°C 74.3°F23.5°C 81% Calm Calm 4.0 mph6.4 kmh 30.04 in1017.3 mb 0.00 in0.0 mm 0.00 in0.0 mm 0.00 in0.0 mm
01:45 AM 80.7°F27.1°C 74.3°F23.5°C 81% Calm Calm 4.0 mph6.4 kmh 30.04 in1017.3 mb 0.00 in0.0 mm 0.00 in0.0 mm 0.00 in0.0 mm
01:50 AM 80.6°F27.0°C 74.2°F23.4°C 81% Calm Calm 4.0 mph6.4 kmh 30.03 in1016.9 mb 0.00 in0.0 mm 0.00 in0.0 mm 0.00 in0.0 mm
01:55 AM 80.6°F27.0°C 74.2°F23.4°C 81% Calm Calm 4.0 mph6.4 kmh 30.04 in1017.3 mb 0.00 in0.0 mm 0.00 in0.0 mm 0.00 in0.0 mm
02:00 AM 80.5°F26.9°C 74.1°F23.4°C 81% Calm Calm -- 30.04 in1017.3 mb 0.00 in0.0 mm 0.00 in0.0 mm 0.00 in0.0 mm
02:05 AM 80.5°F26.9°C 74.1°F23.4°C 81% Calm Calm -- 30.04 in1017.3 mb 0.00 in0.0 mm 0.00 in0.0 mm 0.00 in0.0 mm
02:10 AM 80.5°F26.9°C 74.1°F23.4°C 81% Calm Calm -- 30.04 in1017.3 mb 0.00 in0.0 mm 0.00 in0.0 mm 0.00 in0.0 mm
02:15 AM 80.5°F26.9°C 74.1°F23.4°C 81% Calm Calm -- 30.03 in1016.9 mb 0.00 in0.0 mm 0.00 in0.0 mm 0.00 in0.0 mm
02:20 AM 80.5°F26.9°C 74.1°F23.4°C 81% Calm Calm -- 30.02 in1016.6 mb 0.00 in0.0 mm 0.00 in0.0 mm 0.00 in0.0 mm
02:25 AM 80.5°F26.9°C 73.8°F23.2°C 80% Calm Calm -- 30.03 in1016.9 mb 0.00 in0.0 mm 0.00 in0.0 mm 0.00 in0.0 mm
02:30 AM 80.4°F26.9°C 73.7°F23.2°C 80% Calm Calm -- 30.03 in1016.9 mb 0.00 in0.0 mm 0.00 in0.0 mm 0.00 in0.0 mm
02:35 AM 80.3°F26.8°C 73.9°F23.3°C 81% Calm Calm -- 30.02 in1016.6 mb 0.00 in0.0 mm 0.00 in0.0 mm 0.00 in0.0 mm
02:40 AM 80.3°F26.8°C 74.7°F23.7°C 83% Calm Calm -- 30.03 in1016.9 mb 0.00 in0.0 mm 0.00 in0.0 mm 0.00 in0.0 mm
02:45 AM 80.3°F26.8°C 74.3°F23.5°C 82% Calm Calm -- 30.03 in1016.9 mb 0.00 in0.0 mm 0.00 in0.0 mm 0.00 in0.0 mm
02:50 AM 80.3°F26.8°C 73.9°F23.3°C 81% Calm Calm -- 30.03 in1016.9 mb 0.00 in0.0 mm 0.00 in0.0 mm 0.00 in0.0 mm
02:55 AM 80.3°F26.8°C 73.9°F23.3°C 81% Calm Calm -- 30.02 in1016.6 mb 0.00 in0.0 mm 0.00 in0.0 mm 0.00 in0.0 mm
03:00 AM 80.2°F26.8°C 73.8°F23.2°C 81% Calm Calm -- 30.02 in1016.6 mb 0.00 in0.0 mm 0.00 in0.0 mm 0.00 in0.0 mm
03:05 AM 80.2°F26.8°C 73.8°F23.2°C 81% Calm Calm -- 30.02 in1016.6 mb 0.00 in0.0 mm 0.00 in0.0 mm 0.00 in0.0 mm
03:10 AM 80.1°F26.7°C 73.8°F23.2°C 81% Calm Calm -- 30.03 in1016.9 mb 0.00 in0.0 mm 0.00 in0.0 mm 0.00 in0.0 mm
03:15 AM 80.1°F26.7°C 73.8°F23.2°C 81% Calm Calm 4.0 mph6.4 kmh 30.02 in1016.6 mb 0.00 in0.0 mm 0.00 in0.0 mm 0.00 in0.0 mm
03:20 AM 80.2°F26.8°C 73.8°F23.2°C 81% Calm Calm 4.0 mph6.4 kmh 30.02 in1016.6 mb 0.00 in0.0 mm 0.00 in0.0 mm 0.00 in0.0 mm
03:25 AM 80.2°F26.8°C 73.8°F23.2°C 81% Calm Calm 4.0 mph6.4 kmh 30.02 in1016.6 mb 0.00 in0.0 mm 0.00 in0.0 mm 0.00 in0.0 mm
03:30 AM 80.2°F26.8°C 73.8°F23.2°C 81% Calm Calm 4.0 mph6.4 kmh 30.02 in1016.6 mb 0.00 in0.0 mm 0.00 in0.0 mm 0.00 in0.0 mm
03:35 AM 80.2°F26.8°C 74.2°F23.4°C 82% Calm Calm 4.0 mph6.4 kmh 30.02 in1016.6 mb 0.00 in0.0 mm 0.00 in0.0 mm 0.00 in0.0 mm
03:40 AM 80.1°F26.7°C 74.1°F23.4°C 82% Calm Calm 4.0 mph6.4 kmh 30.02 in1016.6 mb 0.00 in0.0 mm 0.00 in0.0 mm 0.00 in0.0 mm
03:45 AM 80.1°F26.7°C 73.8°F23.2°C 81% Calm Calm 4.0 mph6.4 kmh 30.02 in1016.6 mb 0.00 in0.0 mm 0.00 in0.0 mm 0.00 in0.0 mm
03:50 AM 80.1°F26.7°C 74.1°F23.4°C 82% Calm Calm 4.0 mph6.4 kmh 30.02 in1016.6 mb 0.00 in0.0 mm 0.00 in0.0 mm 0.00 in0.0 mm
03:55 AM 80.0°F26.7°C 74.0°F23.3°C 82% Calm Calm 4.0 mph6.4 kmh 30.02 in1016.6 mb 0.00 in0.0 mm 0.00 in0.0 mm 0.00 in0.0 mm
04:00 AM 80.0°F26.7°C 74.0°F23.3°C 82% Calm Calm -- 30.02 in1016.6 mb 0.00 in0.0 mm 0.00 in0.0 mm 0.00 in0.0 mm
04:05 AM 80.0°F26.7°C 74.0°F23.3°C 82% Calm Calm -- 30.02 in1016.6 mb 0.00 in0.0 mm 0.00 in0.0 mm 0.00 in0.0 mm
04:10 AM 80.0°F26.7°C 74.0°F23.3°C 82% Calm Calm -- 30.02 in1016.6 mb 0.00 in0.0 mm 0.00 in0.0 mm 0.00 in0.0 mm
04:15 AM 80.0°F26.7°C 74.0°F23.3°C 82% Calm Calm -- 30.02 in1016.6 mb 0.00 in0.0 mm 0.00 in0.0 mm 0.00 in0.0 mm
04:20 AM 80.1°F26.7°C 74.5°F23.6°C 83% Calm Calm -- 30.02 in1016.6 mb 0.00 in0.0 mm 0.00 in0.0 mm 0.00 in0.0 mm
04:25 AM 80.2°F26.8°C 74.6°F23.7°C 83% Calm Calm -- 30.02 in1016.6 mb 0.00 in0.0 mm 0.00 in0.0 mm 0.00 in0.0 mm
04:30 AM 80.3°F26.8°C 74.7°F23.7°C 83% Calm Calm -- 30.02 in1016.6 mb 0.00 in0.0 mm 0.00 in0.0 mm 0.00 in0.0 mm
04:35 AM 80.7°F27.1°C 75.8°F24.3°C 85% Calm Calm -- 30.02 in1016.6 mb 0.00 in0.0 mm 0.00 in0.0 mm 0.00 in0.0 mm
04:40 AM 80.9°F27.2°C 76.3°F24.6°C 86% Calm Calm -- 30.02 in1016.6 mb 0.00 in0.0 mm 0.00 in0.0 mm 0.00 in0.0 mm
04:45 AM 81.0°F27.2°C 76.4°F24.7°C 86% Calm Calm 6.0 mph9.7 kmh 30.02 in1016.6 mb 0.00 in0.0 mm 0.00 in0.0 mm 0.00 in0.0 mm
04:50 AM 80.9°F27.2°C 76.3°F24.6°C 86% Calm Calm 6.0 mph9.7 kmh 30.02 in1016.6 mb 0.00 in0.0 mm 0.00 in0.0 mm 0.00 in0.0 mm
04:55 AM 80.8°F27.1°C 76.6°F24.8°C 87% Calm Calm 6.0 mph9.7 kmh 30.03 in1016.9 mb 0.00 in0.0 mm 0.00 in0.0 mm 0.00 in0.0 mm
05:00 AM 80.6°F27.0°C 76.4°F24.7°C 87% Calm Calm -- 30.03 in1016.9 mb 0.00 in0.0 mm 0.00 in0.0 mm 0.00 in0.0 mm
05:05 AM 80.4°F26.9°C 76.2°F24.6°C 87% Calm Calm -- 30.04 in1017.3 mb 0.00 in0.0 mm 0.00 in0.0 mm 0.00 in0.0 mm
05:10 AM 80.1°F26.7°C 75.9°F24.4°C 87% Calm Calm 4.0 mph6.4 kmh 30.03 in1016.9 mb 0.00 in0.0 mm 0.00 in0.0 mm 0.00 in0.0 mm
05:15 AM 80.0°F26.7°C 75.8°F24.3°C 87% Calm Calm 5.0 mph8.0 kmh 30.03 in1016.9 mb 0.00 in0.0 mm 0.00 in0.0 mm 0.00 in0.0 mm
05:20 AM 79.8°F26.6°C 75.2°F24.0°C 86% Calm Calm 8.0 mph12.9 kmh 30.03 in1016.9 mb 0.00 in0.0 mm 0.00 in0.0 mm 0.00 in0.0 mm
05:25 AM 79.8°F26.6°C 75.6°F24.2°C 87% 3.0 mph NE4.8 kmh NE 8.0 mph12.9 kmh 30.03 in1016.9 mb 0.00 in0.0 mm 0.00 in0.0 mm 0.00 in0.0 mm
05:30 AM 79.7°F26.5°C 75.5°F24.2°C 87% Calm Calm 8.0 mph12.9 kmh 30.04 in1017.3 mb 0.00 in0.0 mm 0.00 in0.0 mm 0.00 in0.0 mm
05:35 AM 79.8°F26.6°C 75.6°F24.2°C 87% Calm Calm 8.0 mph12.9 kmh 30.04 in1017.3 mb 0.00 in0.0 mm 0.00 in0.0 mm 0.00 in0.0 mm
05:40 AM 79.8°F26.6°C 75.6°F24.2°C 87% 2.0 mph NNE3.2 kmh NNE 8.0 mph12.9 kmh 30.03 in1016.9 mb 0.00 in0.0 mm 0.00 in0.0 mm 0.00 in0.0 mm
05:45 AM 79.8°F26.6°C 75.2°F24.0°C 86% Calm Calm 8.0 mph12.9 kmh 30.03 in1016.9 mb 0.00 in0.0 mm 0.00 in0.0 mm 0.00 in0.0 mm
05:50 AM 79.8°F26.6°C 75.6°F24.2°C 87% Calm Calm 8.0 mph12.9 kmh 30.03 in1016.9 mb 0.00 in0.0 mm 0.00 in0.0 mm 0.00 in0.0 mm
05:55 AM 79.8°F26.6°C 75.6°F24.2°C 87% Calm Calm 8.0 mph12.9 kmh 30.02 in1016.6 mb 0.00 in0.0 mm 0.00 in0.0 mm 0.00 in0.0 mm
06:00 AM 79.6°F26.4°C 75.7°F24.3°C 88% Calm Calm -- 30.03 in1016.9 mb 0.00 in0.0 mm 0.00 in0.0 mm 0.00 in0.0 mm
06:05 AM 79.5°F26.4°C 75.6°F24.2°C 88% Calm Calm -- 30.02 in1016.6 mb 0.00 in0.0 mm 0.00 in0.0 mm 0.00 in0.0 mm
06:10 AM 79.4°F26.3°C 75.5°F24.2°C 88% Calm Calm 6.0 mph9.7 kmh 30.03 in1016.9 mb 0.00 in0.0 mm 0.00 in0.0 mm 0.00 in0.0 mm
06:15 AM 79.3°F26.3°C 75.4°F24.1°C 88% Calm Calm 6.0 mph9.7 kmh 30.03 in1016.9 mb 0.00 in0.0 mm 0.00 in0.0 mm 0.00 in0.0 mm
06:20 AM 79.2°F26.2°C 75.3°F24.1°C 88% Calm Calm 6.0 mph9.7 kmh 30.04 in1017.3 mb 0.00 in0.0 mm 0.00 in0.0 mm 0.00 in0.0 mm
06:25 AM 79.0°F26.1°C 75.2°F24.0°C 88% Calm Calm 9.0 mph14.5 kmh 30.04 in1017.3 mb 0.00 in0.0 mm 0.00 in0.0 mm 0.00 in0.0 mm
06:30 AM 78.8°F26.0°C 75.0°F23.9°C 88% Calm Calm 9.0 mph14.5 kmh 30.04 in1017.3 mb 0.00 in0.0 mm 0.00 in0.0 mm 0.00 in0.0 mm
06:35 AM 78.7°F25.9°C 74.5°F23.6°C 87% Calm Calm 9.0 mph14.5 kmh 30.04 in1017.3 mb 0.00 in0.0 mm 0.00 in0.0 mm 0.00 in0.0 mm
06:40 AM 78.8°F26.0°C 74.6°F23.7°C 87% Calm Calm 9.0 mph14.5 kmh 30.05 in1017.6 mb 0.00 in0.0 mm 0.00 in0.0 mm 0.00 in0.0 mm
06:45 AM 79.1°F26.2°C 75.6°F24.2°C 89% Calm Calm 10.0 mph16.1 kmh 30.05 in1017.6 mb 0.00 in0.0 mm 0.00 in0.0 mm 0.00 in0.0 mm
06:50 AM 79.1°F26.2°C 75.9°F24.4°C 90% 3.0 mph NE4.8 kmh NE 10.0 mph16.1 kmh 30.05 in1017.6 mb 0.00 in0.0 mm 0.00 in0.0 mm 0.00 in0.0 mm
06:55 AM 78.9°F26.1°C 76.1°F24.5°C 91% 5.0 mph ENE8.0 kmh ENE 10.0 mph16.1 kmh 30.05 in1017.6 mb 0.00 in0.0 mm 0.00 in0.0 mm 0.00 in0.0 mm
07:00 AM 78.3°F25.7°C 75.8°F24.3°C 92% 4.0 mph E6.4 kmh E 6.0 mph9.7 kmh 30.05 in1017.6 mb 0.01 in0.3 mm 0.01 in0.3 mm 0.01 in0.3 mm
07:05 AM 77.9°F25.5°C 75.7°F24.3°C 93% 6.0 mph ESE9.7 kmh ESE 8.0 mph12.9 kmh 30.06 in1017.9 mb 0.02 in0.5 mm 0.12 in3.0 mm 0.02 in0.5 mm
07:10 AM 77.4°F25.2°C 75.2°F24.0°C 93% Calm Calm 8.0 mph12.9 kmh 30.06 in1017.9 mb 0.06 in1.5 mm 0.48 in12.2 mm 0.06 in1.5 mm
07:15 AM 77.0°F25.0°C 75.1°F23.9°C 94% 5.0 mph ESE8.0 kmh ESE 10.0 mph16.1 kmh 30.06 in1017.9 mb 0.13 in3.3 mm 0.84 in21.3 mm 0.13 in3.3 mm
07:20 AM 76.4°F24.7°C 74.6°F23.7°C 94% Calm Calm 10.0 mph16.1 kmh 30.06 in1017.9 mb 0.20 in5.1 mm 0.84 in21.3 mm 0.20 in5.1 mm
07:25 AM 76.1°F24.5°C 74.3°F23.5°C 94% Calm Calm 10.0 mph16.1 kmh 30.06 in1017.9 mb 0.24 in6.1 mm 0.48 in12.2 mm 0.24 in6.1 mm
07:30 AM 76.0°F24.4°C 74.5°F23.6°C 95% Calm Calm 10.0 mph16.1 kmh 30.05 in1017.6 mb 0.25 in6.4 mm 0.12 in3.0 mm 0.25 in6.4 mm
07:35 AM 75.9°F24.4°C 74.4°F23.6°C 95% 2.0 mph NNE3.2 kmh NNE 10.0 mph16.1 kmh 30.06 in1017.9 mb 0.26 in6.6 mm 0.12 in3.0 mm 0.26 in6.6 mm
07:40 AM 75.7°F24.3°C 74.5°F23.6°C 96% Calm Calm 10.0 mph16.1 kmh 30.06 in1017.9 mb 0.27 in6.9 mm 0.12 in3.0 mm 0.27 in6.9 mm
07:45 AM 75.6°F24.2°C 74.4°F23.6°C 96% Calm Calm 10.0 mph16.1 kmh 30.05 in1017.6 mb 0.27 in6.9 mm 0.00 in0.0 mm 0.27 in6.9 mm
07:50 AM 75.4°F24.1°C 73.9°F23.3°C 95% Calm Calm 10.0 mph16.1 kmh 30.05 in1017.6 mb 0.27 in6.9 mm 0.00 in0.0 mm 0.27 in6.9 mm
07:55 AM 75.5°F24.2°C 74.3°F23.5°C 96% Calm Calm 10.0 mph16.1 kmh 30.05 in1017.6 mb 0.27 in6.9 mm 0.00 in0.0 mm 0.27 in6.9 mm
08:00 AM 75.1°F23.9°C 73.6°F23.1°C 95% Calm Calm 2.0 mph3.2 kmh 30.05 in1017.6 mb 0.26 in6.6 mm 0.00 in0.0 mm 0.27 in6.9 mm
08:05 AM 75.0°F23.9°C 73.5°F23.1°C 95% Calm Calm 3.0 mph4.8 kmh 30.06 in1017.9 mb 0.26 in6.6 mm 0.00 in0.0 mm 0.27 in6.9 mm
08:10 AM 75.1°F23.9°C 73.9°F23.3°C 96% Calm Calm 6.0 mph9.7 kmh 30.06 in1017.9 mb 0.26 in6.6 mm 0.00 in0.0 mm 0.27 in6.9 mm
08:15 AM 75.5°F24.2°C 74.3°F23.5°C 96% Calm Calm 7.0 mph11.3 kmh 30.06 in1017.9 mb 0.26 in6.6 mm 0.00 in0.0 mm 0.27 in6.9 mm
08:20 AM 75.9°F24.4°C 75.0°F23.9°C 97% Calm Calm 7.0 mph11.3 kmh 30.06 in1017.9 mb 0.26 in6.6 mm 0.00 in0.0 mm 0.27 in6.9 mm
08:25 AM 76.1°F24.5°C 75.2°F24.0°C 97% Calm Calm 7.0 mph11.3 kmh 30.06 in1017.9 mb 0.26 in6.6 mm 0.00 in0.0 mm 0.27 in6.9 mm
08:30 AM 76.2°F24.6°C 75.3°F24.1°C 97% Calm Calm 7.0 mph11.3 kmh 30.06 in1017.9 mb 0.26 in6.6 mm 0.00 in0.0 mm 0.27 in6.9 mm
08:35 AM 76.4°F24.7°C 75.5°F24.2°C 97% 7.0 mph NE11.3 kmh NE 11.0 mph17.7 kmh 30.06 in1017.9 mb 0.26 in6.6 mm 0.00 in0.0 mm 0.27 in6.9 mm
08:40 AM 76.4°F24.7°C 75.5°F24.2°C 97% 7.0 mph NE11.3 kmh NE 12.0 mph19.3 kmh 30.06 in1017.9 mb 0.26 in6.6 mm 0.00 in0.0 mm 0.27 in6.9 mm
08:45 AM 76.7°F24.8°C 75.8°F24.3°C 97% 3.0 mph NE4.8 kmh NE 12.0 mph19.3 kmh 30.06 in1017.9 mb 0.26 in6.6 mm 0.00 in0.0 mm 0.27 in6.9 mm
08:50 AM 76.8°F24.9°C 75.9°F24.4°C 97% 2.0 mph NE3.2 kmh NE 12.0 mph19.3 kmh 30.06 in1017.9 mb 0.26 in6.6 mm 0.00 in0.0 mm 0.27 in6.9 mm
08:55 AM 77.0°F25.0°C 76.1°F24.5°C 97% 5.0 mph NE8.0 kmh NE 12.0 mph19.3 kmh 30.06 in1017.9 mb 0.26 in6.6 mm 0.00 in0.0 mm 0.27 in6.9 mm
09:00 AM 77.0°F25.0°C 75.8°F24.3°C 96% 4.0 mph NNE6.4 kmh NNE 7.0 mph11.3 kmh 30.06 in1017.9 mb 0.00 in0.0 mm 0.00 in0.0 mm 0.27 in6.9 mm
09:05 AM 76.7°F24.8°C 75.5°F24.2°C 96% Calm Calm 9.0 mph14.5 kmh 30.06 in1017.9 mb 0.00 in0.0 mm 0.00 in0.0 mm 0.27 in6.9 mm
09:10 AM 76.3°F24.6°C 74.8°F23.8°C 95% 2.0 mph NNE3.2 kmh NNE 9.0 mph14.5 kmh 30.06 in1017.9 mb 0.00 in0.0 mm 0.00 in0.0 mm 0.27 in6.9 mm
09:15 AM 76.5°F24.7°C 75.0°F23.9°C 95% Calm Calm 9.0 mph14.5 kmh 30.07 in1018.3 mb 0.00 in0.0 mm 0.00 in0.0 mm 0.27 in6.9 mm
09:20 AM 76.6°F24.8°C 75.1°F23.9°C 95% Calm Calm 9.0 mph14.5 kmh 30.06 in1017.9 mb 0.00 in0.0 mm 0.00 in0.0 mm 0.27 in6.9 mm
09:25 AM 76.9°F24.9°C 75.7°F24.3°C 96% Calm Calm 9.0 mph14.5 kmh 30.06 in1017.9 mb 0.00 in0.0 mm 0.00 in0.0 mm 0.27 in6.9 mm
09:30 AM 77.1°F25.1°C 75.9°F24.4°C 96% Calm Calm 9.0 mph14.5 kmh 30.06 in1017.9 mb 0.01 in0.3 mm 0.12 in3.0 mm 0.28 in7.1 mm
09:35 AM 77.4°F25.2°C 76.2°F24.6°C 96% Calm Calm 9.0 mph14.5 kmh 30.06 in1017.9 mb 0.01 in0.3 mm 0.00 in0.0 mm 0.28 in7.1 mm
09:40 AM 77.9°F25.5°C 77.0°F25.0°C 97% Calm Calm 9.0 mph14.5 kmh 30.06 in1017.9 mb 0.01 in0.3 mm 0.00 in0.0 mm 0.28 in7.1 mm
09:45 AM 78.3°F25.7°C 77.1°F25.1°C 96% Calm Calm 9.0 mph14.5 kmh 30.06 in1017.9 mb 0.01 in0.3 mm 0.00 in0.0 mm 0.28 in7.1 mm
09:50 AM 78.6°F25.9°C 77.4°F25.2°C 96% Calm Calm 9.0 mph14.5 kmh 30.06 in1017.9 mb 0.01 in0.3 mm 0.00 in0.0 mm 0.28 in7.1 mm
09:55 AM 78.7°F25.9°C 77.2°F25.1°C 95% 4.0 mph NE6.4 kmh NE 9.0 mph14.5 kmh 30.06 in1017.9 mb 0.01 in0.3 mm 0.00 in0.0 mm 0.28 in7.1 mm
10:00 AM 78.7°F25.9°C 77.5°F25.3°C 96% Calm Calm -- 30.06 in1017.9 mb 0.01 in0.3 mm 0.00 in0.0 mm 0.28 in7.1 mm
10:05 AM 78.8°F26.0°C 77.3°F25.2°C 95% Calm Calm 4.0 mph6.4 kmh 30.07 in1018.3 mb 0.01 in0.3 mm 0.00 in0.0 mm 0.28 in7.1 mm
10:10 AM 79.0°F26.1°C 77.5°F25.3°C 95% Calm Calm 8.0 mph12.9 kmh 30.07 in1018.3 mb 0.01 in0.3 mm 0.00 in0.0 mm 0.28 in7.1 mm
10:15 AM 79.3°F26.3°C 77.8°F25.4°C 95% Calm Calm 8.0 mph12.9 kmh 30.06 in1017.9 mb 0.01 in0.3 mm 0.00 in0.0 mm 0.28 in7.1 mm
10:20 AM 79.4°F26.3°C 78.2°F25.7°C 96% Calm Calm 8.0 mph12.9 kmh 30.06 in1017.9 mb 0.01 in0.3 mm 0.00 in0.0 mm 0.28 in7.1 mm
10:25 AM 79.6°F26.4°C 78.1°F25.6°C 95% Calm Calm 8.0 mph12.9 kmh 30.06 in1017.9 mb 0.01 in0.3 mm 0.00 in0.0 mm 0.28 in7.1 mm
10:30 AM 79.7°F26.5°C 78.2°F25.7°C 95% Calm Calm 8.0 mph12.9 kmh 30.06 in1017.9 mb 0.01 in0.3 mm 0.00 in0.0 mm 0.28 in7.1 mm
10:35 AM 79.9°F26.6°C 78.3°F25.7°C 95% 2.0 mph ENE3.2 kmh ENE 11.0 mph17.7 kmh 30.06 in1017.9 mb 0.01 in0.3 mm 0.00 in0.0 mm 0.28 in7.1 mm
10:40 AM 80.0°F26.7°C 78.4°F25.8°C 95% 2.0 mph NE3.2 kmh NE 11.0 mph17.7 kmh 30.06 in1017.9 mb 0.01 in0.3 mm 0.00 in0.0 mm 0.28 in7.1 mm
10:45 AM 80.4°F26.9°C 78.5°F25.8°C 94% 7.0 mph NE11.3 kmh NE 11.0 mph17.7 kmh 30.06 in1017.9 mb 0.01 in0.3 mm 0.00 in0.0 mm 0.28 in7.1 mm
10:50 AM 81.0°F27.2°C 78.8°F26.0°C 93% 6.0 mph ENE9.7 kmh ENE 11.0 mph17.7 kmh 30.06 in1017.9 mb 0.01 in0.3 mm 0.00 in0.0 mm 0.28 in7.1 mm
10:55 AM 81.3°F27.4°C 78.1°F25.6°C 90% 8.0 mph NE12.9 kmh NE 11.0 mph17.7 kmh 30.06 in1017.9 mb 0.01 in0.3 mm 0.00 in0.0 mm 0.28 in7.1 mm
11:00 AM 81.3°F27.4°C 77.8°F25.4°C 89% 2.0 mph ESE3.2 kmh ESE 2.0 mph3.2 kmh 30.06 in1017.9 mb 0.00 in0.0 mm 0.00 in0.0 mm 0.28 in7.1 mm
11:05 AM 81.8°F27.7°C 78.2°F25.7°C 89% 5.0 mph NE8.0 kmh NE 10.0 mph16.1 kmh 30.07 in1018.3 mb 0.00 in0.0 mm 0.00 in0.0 mm 0.28 in7.1 mm
11:10 AM 82.1°F27.8°C 77.9°F25.5°C 87% 5.0 mph ENE8.0 kmh ENE 10.0 mph16.1 kmh 30.06 in1017.9 mb 0.00 in0.0 mm 0.00 in0.0 mm 0.28 in7.1 mm
11:15 AM 82.1°F27.8°C 77.9°F25.5°C 87% 4.0 mph NNE6.4 kmh NNE 11.0 mph17.7 kmh 30.07 in1018.3 mb 0.00 in0.0 mm 0.00 in0.0 mm 0.28 in7.1 mm
11:20 AM 82.1°F27.8°C 77.9°F25.5°C 87% 5.0 mph NE8.0 kmh NE 11.0 mph17.7 kmh 30.06 in1017.9 mb 0.00 in0.0 mm 0.00 in0.0 mm 0.28 in7.1 mm
11:25 AM 82.3°F27.9°C 78.4°F25.8°C 88% 3.0 mph NE4.8 kmh NE 11.0 mph17.7 kmh 30.06 in1017.9 mb 0.00 in0.0 mm 0.00 in0.0 mm 0.28 in7.1 mm
11:30 AM 82.6°F28.1°C 78.3°F25.7°C 87% 3.0 mph ENE4.8 kmh ENE 11.0 mph17.7 kmh 30.06 in1017.9 mb 0.00 in0.0 mm 0.00 in0.0 mm 0.28 in7.1 mm
11:35 AM 82.8°F28.2°C 78.5°F25.8°C 87% 6.0 mph NNE9.7 kmh NNE 11.0 mph17.7 kmh 30.06 in1017.9 mb 0.00 in0.0 mm 0.00 in0.0 mm 0.28 in7.1 mm
11:40 AM 82.8°F28.2°C 78.5°F25.8°C 87% 4.0 mph NE6.4 kmh NE 11.0 mph17.7 kmh 30.06 in1017.9 mb 0.00 in0.0 mm 0.00 in0.0 mm 0.28 in7.1 mm
11:45 AM 82.4°F28.0°C 77.8°F25.4°C 86% Calm Calm 11.0 mph17.7 kmh 30.06 in1017.9 mb 0.00 in0.0 mm 0.00 in0.0 mm 0.28 in7.1 mm
11:50 AM 82.2°F27.9°C 78.3°F25.7°C 88% 2.0 mph NNE3.2 kmh NNE 11.0 mph17.7 kmh 30.06 in1017.9 mb 0.00 in0.0 mm 0.00 in0.0 mm 0.28 in7.1 mm
11:55 AM 82.1°F27.8°C 78.2°F25.7°C 88% 5.0 mph N8.0 kmh N 11.0 mph17.7 kmh 30.06 in1017.9 mb 0.00 in0.0 mm 0.00 in0.0 mm 0.28 in7.1 mm
12:00 PM 82.0°F27.8°C 78.8°F26.0°C 90% 4.0 mph NE6.4 kmh NE 4.0 mph6.4 kmh 30.05 in1017.6 mb 0.00 in0.0 mm 0.00 in0.0 mm 0.28 in7.1 mm
12:05 PM 82.0°F27.8°C 78.4°F25.8°C 89% Calm Calm 10.0 mph16.1 kmh 30.06 in1017.9 mb 0.00 in0.0 mm 0.00 in0.0 mm 0.28 in7.1 mm
12:10 PM 82.1°F27.8°C 77.9°F25.5°C 87% Calm Calm 10.0 mph16.1 kmh 30.06 in1017.9 mb 0.00 in0.0 mm 0.00 in0.0 mm 0.28 in7.1 mm
12:15 PM 82.7°F28.2°C 77.7°F25.4°C 85% 4.0 mph NE6.4 kmh NE 10.0 mph16.1 kmh 30.05 in1017.6 mb 0.00 in0.0 mm 0.00 in0.0 mm 0.28 in7.1 mm
12:20 PM 83.6°F28.7°C 79.3°F26.3°C 87% 10.0 mph NE16.1 kmh NE 10.0 mph16.1 kmh 30.05 in1017.6 mb 0.00 in0.0 mm 0.00 in0.0 mm 0.28 in7.1 mm
12:25 PM 83.8°F28.8°C 78.5°F25.8°C 84% 5.0 mph NNE8.0 kmh NNE 11.0 mph17.7 kmh 30.05 in1017.6 mb 0.00 in0.0 mm 0.00 in0.0 mm 0.28 in7.1 mm
12:30 PM 83.1°F28.4°C 78.1°F25.6°C 85% 6.0 mph NNE9.7 kmh NNE 14.0 mph22.5 kmh 30.05 in1017.6 mb 0.00 in0.0 mm 0.00 in0.0 mm 0.28 in7.1 mm
12:35 PM 82.4°F28.0°C 77.1°F25.1°C 84% 6.0 mph NE9.7 kmh NE 14.0 mph22.5 kmh 30.06 in1017.9 mb 0.00 in0.0 mm 0.00 in0.0 mm 0.28 in7.1 mm
12:40 PM 81.7°F27.6°C 79.2°F26.2°C 92% 4.0 mph N6.4 kmh N 14.0 mph22.5 kmh 30.04 in1017.3 mb 0.00 in0.0 mm 0.00 in0.0 mm 0.28 in7.1 mm
12:45 PM 81.7°F27.6°C 78.2°F25.7°C 89% 7.0 mph NNE11.3 kmh NNE 14.0 mph22.5 kmh 30.05 in1017.6 mb 0.00 in0.0 mm 0.00 in0.0 mm 0.28 in7.1 mm
12:50 PM 81.7°F27.6°C 77.1°F25.1°C 86% Calm Calm 14.0 mph22.5 kmh 30.05 in1017.6 mb 0.00 in0.0 mm 0.00 in0.0 mm 0.28 in7.1 mm
12:55 PM 81.9°F27.7°C 77.3°F25.2°C 86% Calm Calm 14.0 mph22.5 kmh 30.04 in1017.3 mb 0.00 in0.0 mm 0.00 in0.0 mm 0.28 in7.1 mm
01:00 PM 82.2°F27.9°C 78.0°F25.6°C 87% Calm Calm -- 30.04 in1017.3 mb 0.00 in0.0 mm 0.00 in0.0 mm 0.28 in7.1 mm
01:05 PM 82.4°F28.0°C 77.8°F25.4°C 86% Calm Calm 8.0 mph12.9 kmh 30.04 in1017.3 mb 0.00 in0.0 mm 0.00 in0.0 mm 0.28 in7.1 mm
01:10 PM 82.8°F28.2°C 78.9°F26.1°C 88% 9.0 mph NNE14.5 kmh NNE 9.0 mph14.5 kmh 30.03 in1016.9 mb 0.00 in0.0 mm 0.00 in0.0 mm 0.28 in7.1 mm
01:15 PM 83.1°F28.4°C 79.2°F26.2°C 88% Calm Calm 9.0 mph14.5 kmh 30.03 in1016.9 mb 0.00 in0.0 mm 0.00 in0.0 mm 0.28 in7.1 mm
01:20 PM 83.4°F28.6°C 78.8°F26.0°C 86% Calm Calm 9.0 mph14.5 kmh 30.03 in1016.9 mb 0.00 in0.0 mm 0.00 in0.0 mm 0.28 in7.1 mm
01:25 PM 83.3°F28.5°C 78.7°F25.9°C 86% Calm Calm 12.0 mph19.3 kmh 30.03 in1016.9 mb 0.00 in0.0 mm 0.00 in0.0 mm 0.28 in7.1 mm
01:30 PM 83.8°F28.8°C 78.8°F26.0°C 85% 3.0 mph E4.8 kmh E 12.0 mph19.3 kmh 30.03 in1016.9 mb 0.00 in0.0 mm 0.00 in0.0 mm 0.28 in7.1 mm
01:35 PM 83.9°F28.8°C 78.6°F25.9°C 84% 7.0 mph ENE11.3 kmh ENE 12.0 mph19.3 kmh 30.03 in1016.9 mb 0.00 in0.0 mm 0.00 in0.0 mm 0.28 in7.1 mm
01:40 PM 83.9°F28.8°C 78.6°F25.9°C 84% 2.0 mph NE3.2 kmh NE 12.0 mph19.3 kmh 30.03 in1016.9 mb 0.00 in0.0 mm 0.00 in0.0 mm 0.28 in7.1 mm
01:45 PM 84.2°F29.0°C 78.5°F25.8°C 83% 1.0 mph NE1.6 kmh NE 12.0 mph19.3 kmh 30.03 in1016.9 mb 0.00 in0.0 mm 0.00 in0.0 mm 0.28 in7.1 mm
01:50 PM 84.3°F29.1°C 80.4°F26.9°C 88% 1.0 mph E1.6 kmh E 12.0 mph19.3 kmh 30.02 in1016.6 mb 0.00 in0.0 mm 0.00 in0.0 mm 0.28 in7.1 mm
01:55 PM 84.3°F29.1°C 80.4°F26.9°C 88% 1.0 mph ENE1.6 kmh ENE 12.0 mph19.3 kmh 30.02 in1016.6 mb 0.00 in0.0 mm 0.00 in0.0 mm 0.28 in7.1 mm
02:00 PM 84.3°F29.1°C 80.0°F26.7°C 87% Calm Calm -- 30.02 in1016.6 mb 0.00 in0.0 mm 0.00 in0.0 mm 0.28 in7.1 mm
02:05 PM 84.5°F29.2°C 79.9°F26.6°C 86% 1.0 mph NE1.6 kmh NE 8.0 mph12.9 kmh 30.02 in1016.6 mb 0.00 in0.0 mm 0.00 in0.0 mm 0.28 in7.1 mm
02:10 PM 84.4°F29.1°C 79.0°F26.1°C 84% 5.0 mph NE8.0 kmh NE 14.0 mph22.5 kmh 30.02 in1016.6 mb 0.00 in0.0 mm 0.00 in0.0 mm 0.28 in7.1 mm
02:15 PM 84.3°F29.1°C 79.3°F26.3°C 85% 7.0 mph NE11.3 kmh NE 14.0 mph22.5 kmh 30.01 in1016.3 mb 0.00 in0.0 mm 0.00 in0.0 mm 0.28 in7.1 mm
02:20 PM 84.4°F29.1°C 79.8°F26.6°C 86% Calm Calm 14.0 mph22.5 kmh 30.01 in1016.3 mb 0.00 in0.0 mm 0.00 in0.0 mm 0.28 in7.1 mm
02:25 PM 84.4°F29.1°C 79.4°F26.3°C 85% Calm Calm 14.0 mph22.5 kmh 30.01 in1016.3 mb 0.00 in0.0 mm 0.00 in0.0 mm 0.28 in7.1 mm
02:30 PM 84.6°F29.2°C 80.3°F26.8°C 87% 2.0 mph ENE3.2 kmh ENE 15.0 mph24.1 kmh 30.01 in1016.3 mb 0.00 in0.0 mm 0.00 in0.0 mm 0.28 in7.1 mm
02:35 PM 84.7°F29.3°C 78.6°F25.9°C 82% 11.0 mph ESE17.7 kmh ESE 15.0 mph24.1 kmh 30.00 in1015.9 mb 0.00 in0.0 mm 0.00 in0.0 mm 0.28 in7.1 mm
02:40 PM 84.9°F29.4°C 79.9°F26.6°C 85% 3.0 mph ENE4.8 kmh ENE 15.0 mph24.1 kmh 30.00 in1015.9 mb 0.00 in0.0 mm 0.00 in0.0 mm 0.28 in7.1 mm
02:45 PM 84.5°F29.2°C 77.7°F25.4°C 80% Calm Calm 15.0 mph24.1 kmh 30.00 in1015.9 mb 0.00 in0.0 mm 0.00 in0.0 mm 0.28 in7.1 mm
02:50 PM 84.7°F29.3°C 79.0°F26.1°C 83% 4.0 mph NE6.4 kmh NE 15.0 mph24.1 kmh 30.01 in1016.3 mb 0.00 in0.0 mm 0.00 in0.0 mm 0.28 in7.1 mm
02:55 PM 84.7°F29.3°C 79.7°F26.5°C 85% Calm Calm 15.0 mph24.1 kmh 30.00 in1015.9 mb 0.00 in0.0 mm 0.00 in0.0 mm 0.28 in7.1 mm
03:00 PM 84.4°F29.1°C 79.0°F26.1°C 84% Calm Calm -- 30.00 in1015.9 mb 0.00 in0.0 mm 0.00 in0.0 mm 0.28 in7.1 mm
03:05 PM 84.2°F29.0°C 78.8°F26.0°C 84% 5.0 mph NE8.0 kmh NE 8.0 mph12.9 kmh 30.01 in1016.3 mb 0.00 in0.0 mm 0.00 in0.0 mm 0.28 in7.1 mm
03:10 PM 84.4°F29.1°C 79.8°F26.6°C 86% 2.0 mph NE3.2 kmh NE 16.0 mph25.7 kmh 30.01 in1016.3 mb 0.00 in0.0 mm 0.00 in0.0 mm 0.28 in7.1 mm
03:15 PM 84.4°F29.1°C 79.8°F26.6°C 86% Calm Calm 16.0 mph25.7 kmh 30.00 in1015.9 mb 0.00 in0.0 mm 0.00 in0.0 mm 0.28 in7.1 mm
03:20 PM 84.4°F29.1°C 79.0°F26.1°C 84% 5.0 mph ENE8.0 kmh ENE 16.0 mph25.7 kmh 30.01 in1016.3 mb 0.00 in0.0 mm 0.00 in0.0 mm 0.28 in7.1 mm
03:25 PM 84.1°F28.9°C 78.8°F26.0°C 84% 1.0 mph E1.6 kmh E 16.0 mph25.7 kmh 30.00 in1015.9 mb 0.00 in0.0 mm 0.00 in0.0 mm 0.28 in7.1 mm
03:30 PM 84.0°F28.9°C 79.4°F26.3°C 86% 2.0 mph E3.2 kmh E 16.0 mph25.7 kmh 30.00 in1015.9 mb 0.00 in0.0 mm 0.00 in0.0 mm 0.28 in7.1 mm
03:35 PM 84.1°F28.9°C 78.8°F26.0°C 84% 4.0 mph NE6.4 kmh NE 16.0 mph25.7 kmh 30.00 in1015.9 mb 0.00 in0.0 mm 0.00 in0.0 mm 0.28 in7.1 mm
03:40 PM 84.0°F28.9°C 79.0°F26.1°C 85% Calm Calm 16.0 mph25.7 kmh 30.00 in1015.9 mb 0.00 in0.0 mm 0.00 in0.0 mm 0.28 in7.1 mm
03:45 PM 83.9°F28.8°C 78.9°F26.1°C 85% Calm Calm 16.0 mph25.7 kmh 30.00 in1015.9 mb 0.00 in0.0 mm 0.00 in0.0 mm 0.28 in7.1 mm
03:50 PM 83.7°F28.7°C 78.0°F25.6°C 83% 4.0 mph NE6.4 kmh NE 16.0 mph25.7 kmh 30.00 in1015.9 mb 0.00 in0.0 mm 0.00 in0.0 mm 0.28 in7.1 mm
03:55 PM 83.6°F28.7°C 77.2°F25.1°C 81% Calm Calm 16.0 mph25.7 kmh 30.00 in1015.9 mb 0.00 in0.0 mm 0.00 in0.0 mm 0.28 in7.1 mm
04:00 PM 83.6°F28.7°C 77.5°F25.3°C 82% 4.0 mph NE6.4 kmh NE 4.0 mph6.4 kmh 30.00 in1015.9 mb 0.00 in0.0 mm 0.00 in0.0 mm 0.28 in7.1 mm
04:05 PM 83.6°F28.7°C 78.3°F25.7°C 84% 4.0 mph NE6.4 kmh NE 10.0 mph16.1 kmh 30.00 in1015.9 mb 0.00 in0.0 mm 0.00 in0.0 mm 0.28 in7.1 mm
04:10 PM 83.5°F28.6°C 76.7°F24.8°C 80% 5.0 mph E8.0 kmh E 10.0 mph16.1 kmh 30.01 in1016.3 mb 0.00 in0.0 mm 0.00 in0.0 mm 0.28 in7.1 mm
04:15 PM 83.8°F28.8°C 78.5°F25.8°C 84% Calm Calm 10.0 mph16.1 kmh 30.01 in1016.3 mb 0.00 in0.0 mm 0.00 in0.0 mm 0.28 in7.1 mm
04:20 PM 83.7°F28.7°C 78.4°F25.8°C 84% 3.0 mph E4.8 kmh E 10.0 mph16.1 kmh 30.01 in1016.3 mb 0.00 in0.0 mm 0.00 in0.0 mm 0.28 in7.1 mm
04:25 PM 83.8°F28.8°C 78.1°F25.6°C 83% 4.0 mph ENE6.4 kmh ENE 10.0 mph16.1 kmh 30.01 in1016.3 mb 0.00 in0.0 mm 0.00 in0.0 mm 0.28 in7.1 mm
04:30 PM 83.7°F28.7°C 78.0°F25.6°C 83% 1.0 mph NE1.6 kmh NE 10.0 mph16.1 kmh 30.00 in1015.9 mb 0.00 in0.0 mm 0.00 in0.0 mm 0.28 in7.1 mm
04:35 PM 83.7°F28.7°C 76.9°F24.9°C 80% Calm Calm 10.0 mph16.1 kmh 30.01 in1016.3 mb 0.00 in0.0 mm 0.00 in0.0 mm 0.28 in7.1 mm
04:40 PM 83.8°F28.8°C 79.5°F26.4°C 87% 4.0 mph E6.4 kmh E 12.0 mph19.3 kmh 30.01 in1016.3 mb 0.00 in0.0 mm 0.00 in0.0 mm 0.28 in7.1 mm
04:45 PM 83.9°F28.8°C 78.9°F26.1°C 85% 11.0 mph E17.7 kmh E 13.0 mph20.9 kmh 30.00 in1015.9 mb 0.00 in0.0 mm 0.00 in0.0 mm 0.28 in7.1 mm
04:50 PM 83.8°F28.8°C 80.2°F26.8°C 89% 6.0 mph E9.7 kmh E 13.0 mph20.9 kmh 30.01 in1016.3 mb 0.00 in0.0 mm 0.00 in0.0 mm 0.28 in7.1 mm
04:55 PM 83.4°F28.6°C 77.0°F25.0°C 81% 3.0 mph E4.8 kmh E 13.0 mph20.9 kmh 30.01 in1016.3 mb 0.00 in0.0 mm 0.00 in0.0 mm 0.28 in7.1 mm
05:00 PM 83.2°F28.4°C 76.8°F24.9°C 81% 5.0 mph E8.0 kmh E 5.0 mph8.0 kmh 30.01 in1016.3 mb 0.00 in0.0 mm 0.00 in0.0 mm 0.28 in7.1 mm
05:05 PM 82.8°F28.2°C 76.0°F24.4°C 80% Calm Calm 6.0 mph9.7 kmh 30.01 in1016.3 mb 0.00 in0.0 mm 0.00 in0.0 mm 0.28 in7.1 mm
05:10 PM 82.6°F28.1°C 75.8°F24.3°C 80% Calm Calm 6.0 mph9.7 kmh 30.01 in1016.3 mb 0.00 in0.0 mm 0.00 in0.0 mm 0.28 in7.1 mm
05:15 PM 82.4°F28.0°C 76.0°F24.4°C 81% Calm Calm 6.0 mph9.7 kmh 30.00 in1015.9 mb 0.00 in0.0 mm 0.00 in0.0 mm 0.28 in7.1 mm
05:20 PM 82.3°F27.9°C 75.1°F23.9°C 79% 2.0 mph ENE3.2 kmh ENE 6.0 mph9.7 kmh 30.01 in1016.3 mb 0.00 in0.0 mm 0.00 in0.0 mm 0.28 in7.1 mm
05:25 PM 82.3°F27.9°C 75.1°F23.9°C 79% Calm Calm 7.0 mph11.3 kmh 30.01 in1016.3 mb 0.00 in0.0 mm 0.00 in0.0 mm 0.28 in7.1 mm
05:30 PM 82.2°F27.9°C 75.4°F24.1°C 80% Calm Calm 7.0 mph11.3 kmh 30.01 in1016.3 mb 0.00 in0.0 mm 0.00 in0.0 mm 0.28 in7.1 mm
05:35 PM 82.3°F27.9°C 75.9°F24.4°C 81% 1.0 mph ENE1.6 kmh ENE 7.0 mph11.3 kmh 30.01 in1016.3 mb 0.00 in0.0 mm 0.00 in0.0 mm 0.28 in7.1 mm
05:40 PM 82.2°F27.9°C 76.2°F24.6°C 82% 7.0 mph E11.3 kmh E 7.0 mph11.3 kmh 30.01 in1016.3 mb 0.00 in0.0 mm 0.00 in0.0 mm 0.28 in7.1 mm
05:45 PM 82.2°F27.9°C 76.5°F24.7°C 83% Calm Calm 9.0 mph14.5 kmh 30.01 in1016.3 mb 0.00 in0.0 mm 0.00 in0.0 mm 0.28 in7.1 mm
05:50 PM 82.1°F27.8°C 76.8°F24.9°C 84% 6.0 mph ESE9.7 kmh ESE 11.0 mph17.7 kmh 30.01 in1016.3 mb 0.00 in0.0 mm 0.00 in0.0 mm 0.28 in7.1 mm
05:55 PM 82.3°F27.9°C 77.3°F25.2°C 85% 1.0 mph SE1.6 kmh SE 11.0 mph17.7 kmh 30.01 in1016.3 mb 0.00 in0.0 mm 0.00 in0.0 mm 0.28 in7.1 mm
06:00 PM 82.2°F27.9°C 77.2°F25.1°C 85% 2.0 mph ESE3.2 kmh ESE 5.0 mph8.0 kmh 30.00 in1015.9 mb 0.00 in0.0 mm 0.00 in0.0 mm 0.28 in7.1 mm
06:05 PM 81.9°F27.7°C 76.6°F24.8°C 84% 7.0 mph SE11.3 kmh SE 11.0 mph17.7 kmh 30.01 in1016.3 mb 0.00 in0.0 mm 0.00 in0.0 mm 0.28 in7.1 mm
06:10 PM 81.7°F27.6°C 76.4°F24.7°C 84% 6.0 mph ESE9.7 kmh ESE 11.0 mph17.7 kmh 30.01 in1016.3 mb 0.00 in0.0 mm 0.00 in0.0 mm 0.28 in7.1 mm
06:15 PM 81.5°F27.5°C 76.2°F24.6°C 84% 4.0 mph SE6.4 kmh SE 11.0 mph17.7 kmh 30.01 in1016.3 mb 0.00 in0.0 mm 0.00 in0.0 mm 0.28 in7.1 mm
06:20 PM 81.3°F27.4°C 76.4°F24.7°C 85% Calm Calm 11.0 mph17.7 kmh 30.00 in1015.9 mb 0.00 in0.0 mm 0.00 in0.0 mm 0.28 in7.1 mm
06:25 PM 81.2°F27.3°C 76.3°F24.6°C 85% 1.0 mph ESE1.6 kmh ESE 11.0 mph17.7 kmh 30.01 in1016.3 mb 0.00 in0.0 mm 0.00 in0.0 mm 0.28 in7.1 mm
06:30 PM 80.9°F27.2°C 76.0°F24.4°C 85% Calm Calm 11.0 mph17.7 kmh 30.00 in1015.9 mb 0.00 in0.0 mm 0.00 in0.0 mm 0.28 in7.1 mm
06:35 PM 80.7°F27.1°C 75.8°F24.3°C 85% 4.0 mph ESE6.4 kmh ESE 11.0 mph17.7 kmh 30.00 in1015.9 mb 0.00 in0.0 mm 0.00 in0.0 mm 0.28 in7.1 mm
06:40 PM 80.6°F27.0°C 75.7°F24.3°C 85% 4.0 mph SE6.4 kmh SE 11.0 mph17.7 kmh 30.00 in1015.9 mb 0.00 in0.0 mm 0.00 in0.0 mm 0.28 in7.1 mm
06:45 PM 80.4°F26.9°C 75.5°F24.2°C 85% 2.0 mph ESE3.2 kmh ESE 11.0 mph17.7 kmh 30.00 in1015.9 mb 0.00 in0.0 mm 0.00 in0.0 mm 0.28 in7.1 mm
06:50 PM 80.5°F26.9°C 75.9°F24.4°C 86% 3.0 mph E4.8 kmh E 11.0 mph17.7 kmh 30.00 in1015.9 mb 0.00 in0.0 mm 0.00 in0.0 mm 0.28 in7.1 mm
06:55 PM 80.5°F26.9°C 75.9°F24.4°C 86% Calm Calm 11.0 mph17.7 kmh 30.01 in1016.3 mb 0.00 in0.0 mm 0.00 in0.0 mm 0.28 in7.1 mm
07:00 PM 80.6°F27.0°C 76.4°F24.7°C 87% Calm Calm -- 30.01 in1016.3 mb 0.00 in0.0 mm 0.00 in0.0 mm 0.28 in7.1 mm
07:05 PM 80.7°F27.1°C 76.5°F24.7°C 87% 5.0 mph ESE8.0 kmh ESE 8.0 mph12.9 kmh 30.01 in1016.3 mb 0.00 in0.0 mm 0.00 in0.0 mm 0.28 in7.1 mm
07:10 PM 80.7°F27.1°C 76.5°F24.7°C 87% Calm Calm 8.0 mph12.9 kmh 30.00 in1015.9 mb 0.00 in0.0 mm 0.00 in0.0 mm 0.28 in7.1 mm
07:15 PM 80.7°F27.1°C 76.1°F24.5°C 86% Calm Calm 8.0 mph12.9 kmh 30.01 in1016.3 mb 0.00 in0.0 mm 0.00 in0.0 mm 0.28 in7.1 mm
07:20 PM 80.6°F27.0°C 76.0°F24.4°C 86% Calm Calm 8.0 mph12.9 kmh 30.00 in1015.9 mb 0.00 in0.0 mm 0.00 in0.0 mm 0.28 in7.1 mm
07:25 PM 80.3°F26.8°C 75.0°F23.9°C 84% Calm Calm 8.0 mph12.9 kmh 30.01 in1016.3 mb 0.00 in0.0 mm 0.00 in0.0 mm 0.28 in7.1 mm
07:30 PM 80.3°F26.8°C 75.4°F24.1°C 85% Calm Calm 8.0 mph12.9 kmh 30.02 in1016.6 mb 0.00 in0.0 mm 0.00 in0.0 mm 0.28 in7.1 mm
07:35 PM 80.2°F26.8°C 74.9°F23.8°C 84% Calm Calm 8.0 mph12.9 kmh 30.01 in1016.3 mb 0.00 in0.0 mm 0.00 in0.0 mm 0.28 in7.1 mm
07:40 PM 80.2°F26.8°C 74.9°F23.8°C 84% Calm Calm 8.0 mph12.9 kmh 30.02 in1016.6 mb 0.00 in0.0 mm 0.00 in0.0 mm 0.28 in7.1 mm
07:45 PM 80.2°F26.8°C 74.9°F23.8°C 84% Calm Calm 8.0 mph12.9 kmh 30.01 in1016.3 mb 0.00 in0.0 mm 0.00 in0.0 mm 0.28 in7.1 mm
07:50 PM 80.3°F26.8°C 75.4°F24.1°C 85% Calm Calm 8.0 mph12.9 kmh 30.01 in1016.3 mb 0.00 in0.0 mm 0.00 in0.0 mm 0.28 in7.1 mm
07:55 PM 80.3°F26.8°C 75.4°F24.1°C 85% Calm Calm 8.0 mph12.9 kmh 30.01 in1016.3 mb 0.00 in0.0 mm 0.00 in0.0 mm 0.28 in7.1 mm
08:00 PM 80.5°F26.9°C 75.6°F24.2°C 85% Calm Calm -- 30.02 in1016.6 mb 0.00 in0.0 mm 0.00 in0.0 mm 0.28 in7.1 mm
08:05 PM 80.7°F27.1°C 76.1°F24.5°C 86% Calm Calm -- 30.02 in1016.6 mb 0.00 in0.0 mm 0.00 in0.0 mm 0.28 in7.1 mm
08:10 PM 80.8°F27.1°C 76.2°F24.6°C 86% Calm Calm 6.0 mph9.7 kmh 30.01 in1016.3 mb 0.00 in0.0 mm 0.00 in0.0 mm 0.28 in7.1 mm
08:15 PM 80.8°F27.1°C 76.2°F24.6°C 86% Calm Calm 6.0 mph9.7 kmh 30.01 in1016.3 mb 0.00 in0.0 mm 0.00 in0.0 mm 0.28 in7.1 mm
08:20 PM 80.8°F27.1°C 76.2°F24.6°C 86% 5.0 mph ESE8.0 kmh ESE 7.0 mph11.3 kmh 30.01 in1016.3 mb 0.00 in0.0 mm 0.00 in0.0 mm 0.28 in7.1 mm
08:25 PM 80.7°F27.1°C 76.1°F24.5°C 86% 1.0 mph E1.6 kmh E 7.0 mph11.3 kmh 30.01 in1016.3 mb 0.00 in0.0 mm 0.00 in0.0 mm 0.28 in7.1 mm
08:30 PM 80.6°F27.0°C 75.7°F24.3°C 85% Calm Calm 9.0 mph14.5 kmh 30.02 in1016.6 mb 0.00 in0.0 mm 0.00 in0.0 mm 0.28 in7.1 mm
08:35 PM 80.6°F27.0°C 75.7°F24.3°C 85% Calm Calm 9.0 mph14.5 kmh 30.02 in1016.6 mb 0.00 in0.0 mm 0.00 in0.0 mm 0.28 in7.1 mm
08:40 PM 80.6°F27.0°C 75.7°F24.3°C 85% 5.0 mph E8.0 kmh E 9.0 mph14.5 kmh 30.02 in1016.6 mb 0.00 in0.0 mm 0.00 in0.0 mm 0.28 in7.1 mm
08:45 PM 80.7°F27.1°C 75.8°F24.3°C 85% 6.0 mph E9.7 kmh E 9.0 mph14.5 kmh 30.02 in1016.6 mb 0.00 in0.0 mm 0.00 in0.0 mm 0.28 in7.1 mm
08:50 PM 80.9°F27.2°C 76.0°F24.4°C 85% Calm Calm 9.0 mph14.5 kmh 30.02 in1016.6 mb 0.00 in0.0 mm 0.00 in0.0 mm 0.28 in7.1 mm
08:55 PM 81.0°F27.2°C 75.7°F24.3°C 84% 4.0 mph E6.4 kmh E 9.0 mph14.5 kmh 30.03 in1016.9 mb 0.00 in0.0 mm 0.00 in0.0 mm 0.28 in7.1 mm
09:00 PM 81.2°F27.3°C 76.3°F24.6°C 85% Calm Calm -- 30.03 in1016.9 mb 0.00 in0.0 mm 0.00 in0.0 mm 0.28 in7.1 mm
09:05 PM 81.3°F27.4°C 76.0°F24.4°C 84% Calm Calm -- 30.02 in1016.6 mb 0.00 in0.0 mm 0.00 in0.0 mm 0.28 in7.1 mm
09:10 PM 81.4°F27.4°C 76.5°F24.7°C 85% Calm Calm -- 30.02 in1016.6 mb 0.00 in0.0 mm 0.00 in0.0 mm 0.28 in7.1 mm
09:15 PM 81.3°F27.4°C 76.4°F24.7°C 85% Calm Calm -- 30.02 in1016.6 mb 0.00 in0.0 mm 0.00 in0.0 mm 0.28 in7.1 mm
09:20 PM 81.3°F27.4°C 75.7°F24.3°C 83% Calm Calm 5.0 mph8.0 kmh 30.02 in1016.6 mb 0.00 in0.0 mm 0.00 in0.0 mm 0.28 in7.1 mm
09:25 PM 81.3°F27.4°C 76.0°F24.4°C 84% Calm Calm 5.0 mph8.0 kmh 30.02 in1016.6 mb 0.00 in0.0 mm 0.00 in0.0 mm 0.28 in7.1 mm
09:30 PM 81.4°F27.4°C 76.1°F24.5°C 84% Calm Calm 8.0 mph12.9 kmh 30.02 in1016.6 mb 0.00 in0.0 mm 0.00 in0.0 mm 0.28 in7.1 mm
09:35 PM 81.4°F27.4°C 76.1°F24.5°C 84% Calm Calm 8.0 mph12.9 kmh 30.03 in1016.9 mb 0.00 in0.0 mm 0.00 in0.0 mm 0.28 in7.1 mm
09:40 PM 81.3°F27.4°C 75.7°F24.3°C 83% Calm Calm 8.0 mph12.9 kmh 30.02 in1016.6 mb 0.00 in0.0 mm 0.00 in0.0 mm 0.28 in7.1 mm
09:45 PM 81.4°F27.4°C 75.7°F24.3°C 83% Calm Calm 8.0 mph12.9 kmh 30.03 in1016.9 mb 0.00 in0.0 mm 0.00 in0.0 mm 0.28 in7.1 mm
09:50 PM 81.5°F27.5°C 76.2°F24.6°C 84% Calm Calm 8.0 mph12.9 kmh 30.02 in1016.6 mb 0.00 in0.0 mm 0.00 in0.0 mm 0.28 in7.1 mm
09:55 PM 81.5°F27.5°C 76.2°F24.6°C 84% 4.0 mph E6.4 kmh E 9.0 mph14.5 kmh 30.02 in1016.6 mb 0.00 in0.0 mm 0.00 in0.0 mm 0.28 in7.1 mm
10:00 PM 81.5°F27.5°C 76.2°F24.6°C 84% 5.0 mph ESE8.0 kmh ESE 5.0 mph8.0 kmh 30.02 in1016.6 mb 0.00 in0.0 mm 0.00 in0.0 mm 0.28 in7.1 mm
10:05 PM 81.5°F27.5°C 76.2°F24.6°C 84% 3.0 mph E4.8 kmh E 12.0 mph19.3 kmh 30.02 in1016.6 mb 0.00 in0.0 mm 0.00 in0.0 mm 0.28 in7.1 mm
10:10 PM 81.5°F27.5°C 76.2°F24.6°C 84% 3.0 mph ESE4.8 kmh ESE 12.0 mph19.3 kmh 30.03 in1016.9 mb 0.00 in0.0 mm 0.00 in0.0 mm 0.28 in7.1 mm
10:15 PM 81.5°F27.5°C 76.2°F24.6°C 84% Calm Calm 12.0 mph19.3 kmh 30.03 in1016.9 mb 0.00 in0.0 mm 0.00 in0.0 mm 0.28 in7.1 mm
10:20 PM 81.6°F27.6°C 76.3°F24.6°C 84% 4.0 mph E6.4 kmh E 12.0 mph19.3 kmh 30.02 in1016.6 mb 0.00 in0.0 mm 0.00 in0.0 mm 0.28 in7.1 mm
10:25 PM 81.6°F27.6°C 76.3°F24.6°C 84% 1.0 mph E1.6 kmh E 12.0 mph19.3 kmh 30.03 in1016.9 mb 0.00 in0.0 mm 0.00 in0.0 mm 0.28 in7.1 mm
10:30 PM 81.6°F27.6°C 76.3°F24.6°C 84% 3.0 mph ESE4.8 kmh ESE 12.0 mph19.3 kmh 30.03 in1016.9 mb 0.00 in0.0 mm 0.00 in0.0 mm 0.28 in7.1 mm
10:35 PM 81.6°F27.6°C 76.7°F24.8°C 85% 4.0 mph ESE6.4 kmh ESE 12.0 mph19.3 kmh 30.03 in1016.9 mb 0.00 in0.0 mm 0.00 in0.0 mm 0.28 in7.1 mm
10:40 PM 81.6°F27.6°C 76.7°F24.8°C 85% 3.0 mph ESE4.8 kmh ESE 12.0 mph19.3 kmh 30.03 in1016.9 mb 0.00 in0.0 mm 0.00 in0.0 mm 0.28 in7.1 mm
10:45 PM 81.6°F27.6°C 76.7°F24.8°C 85% Calm Calm 12.0 mph19.3 kmh 30.03 in1016.9 mb 0.00 in0.0 mm 0.00 in0.0 mm 0.28 in7.1 mm
10:50 PM 81.5°F27.5°C 76.6°F24.8°C 85% Calm Calm 12.0 mph19.3 kmh 30.02 in1016.6 mb 0.00 in0.0 mm 0.00 in0.0 mm 0.28 in7.1 mm
10:55 PM 81.6°F27.6°C 76.7°F24.8°C 85% 1.0 mph ESE1.6 kmh ESE 12.0 mph19.3 kmh 30.03 in1016.9 mb 0.00 in0.0 mm 0.00 in0.0 mm 0.28 in7.1 mm
11:00 PM 81.5°F27.5°C 76.6°F24.8°C 85% 6.0 mph ESE9.7 kmh ESE 6.0 mph9.7 kmh 30.02 in1016.6 mb 0.00 in0.0 mm 0.00 in0.0 mm 0.28 in7.1 mm
11:05 PM 81.4°F27.4°C 76.5°F24.7°C 85% Calm Calm 7.0 mph11.3 kmh 30.02 in1016.6 mb 0.00 in0.0 mm 0.00 in0.0 mm 0.28 in7.1 mm
11:10 PM 81.4°F27.4°C 76.1°F24.5°C 84% Calm Calm 8.0 mph12.9 kmh 30.02 in1016.6 mb 0.00 in0.0 mm 0.00 in0.0 mm 0.28 in7.1 mm
11:15 PM 81.3°F27.4°C 76.0°F24.4°C 84% 4.0 mph ESE6.4 kmh ESE 8.0 mph12.9 kmh 30.02 in1016.6 mb 0.00 in0.0 mm 0.00 in0.0 mm 0.28 in7.1 mm
11:20 PM 81.3°F27.4°C 76.4°F24.7°C 85% Calm Calm 8.0 mph12.9 kmh 30.03 in1016.9 mb 0.00 in0.0 mm 0.00 in0.0 mm 0.28 in7.1 mm
11:25 PM 81.3°F27.4°C 76.4°F24.7°C 85% Calm Calm 8.0 mph12.9 kmh 30.03 in1016.9 mb 0.00 in0.0 mm 0.00 in0.0 mm 0.28 in7.1 mm
11:30 PM 81.3°F27.4°C 76.4°F24.7°C 85% Calm Calm 8.0 mph12.9 kmh 30.03 in1016.9 mb 0.00 in0.0 mm 0.00 in0.0 mm 0.28 in7.1 mm
11:35 PM 81.3°F27.4°C 76.0°F24.4°C 84% Calm Calm 8.0 mph12.9 kmh 30.02 in1016.6 mb 0.00 in0.0 mm 0.00 in0.0 mm 0.28 in7.1 mm
11:40 PM 81.3°F27.4°C 76.0°F24.4°C 84% Calm Calm 8.0 mph12.9 kmh 30.02 in1016.6 mb 0.00 in0.0 mm 0.00 in0.0 mm 0.28 in7.1 mm
11:45 PM 81.3°F27.4°C 76.0°F24.4°C 84% Calm Calm 8.0 mph12.9 kmh 30.02 in1016.6 mb 0.00 in0.0 mm 0.00 in0.0 mm 0.28 in7.1 mm
11:50 PM 81.4°F27.4°C 76.5°F24.7°C 85% Calm Calm 8.0 mph12.9 kmh 30.02 in1016.6 mb 0.00 in0.0 mm 0.00 in0.0 mm 0.28 in7.1 mm
11:55 PM 81.4°F27.4°C 76.5°F24.7°C 85% Calm Calm 8.0 mph12.9 kmh 30.02 in1016.6 mb 0.00 in0.0 mm 0.00 in0.0 mm 0.28 in7.1 mm